NKS619 KFLL-KIAH
Flight info
| Callsign | NKS619 |
|---|---|
| Flight time | N/A |
| Altitude | 36000 |
| Route | BNICE2 DOLIE Y280 LEV NNCEE2 |
| Aircraft | A321/M-SDE3FGHIRWY/LB1 |
Departure
| Time | 2026-05-03 23:15 |
|---|---|
| Airport | Fort Lauderdale Hollywood International Airport (KFLL) |
Arrival
| Time | N/A |
|---|---|
| Airport | George Bush Intercontinental Airport (KIAH) |
| Time | Latitude | Longitude | Altitude | Speed | Heading |
|---|---|---|---|---|---|
| 2026-05-03 22:09 | 26.06866 | -80.14470 | 12 ft | 0 kts | 0° |
| 2026-05-03 22:44 | 26.06858 | -80.14470 | 12 ft | 2 kts | 0° |
| 2026-05-03 22:45 | 26.06842 | -80.14468 | 12 ft | 2 kts | 342° |
| 2026-05-03 22:45 | 26.06828 | -80.14462 | 12 ft | 2 kts | 329° |
| 2026-05-03 22:45 | 26.06816 | -80.14451 | 12 ft | 2 kts | 314° |
| 2026-05-03 22:45 | 26.06806 | -80.14438 | 12 ft | 2 kts | 300° |
| 2026-05-03 22:46 | 26.06800 | -80.14422 | 12 ft | 2 kts | 285° |
| 2026-05-03 22:46 | 26.06797 | -80.14407 | 12 ft | 0 kts | 272° |
| 2026-05-03 22:46 | 26.06797 | -80.14405 | 12 ft | 2 kts | 271° |
| 2026-05-03 22:46 | 26.06798 | -80.14442 | 12 ft | 4 kts | 270° |
| 2026-05-03 22:47 | 26.06798 | -80.14455 | 12 ft | 0 kts | 270° |
| 2026-05-03 22:49 | 26.06798 | -80.14457 | 12 ft | 0 kts | 270° |
| 2026-05-03 22:49 | 26.06798 | -80.14459 | 12 ft | 0 kts | 270° |
| 2026-05-03 22:49 | 26.06798 | -80.14466 | 12 ft | 2 kts | 270° |
| 2026-05-03 22:50 | 26.06798 | -80.14498 | 12 ft | 6 kts | 270° |
| 2026-05-03 22:50 | 26.06792 | -80.14565 | 12 ft | 10 kts | 241° |
| 2026-05-03 22:50 | 26.06766 | -80.14653 | 12 ft | 13 kts | 268° |
| 2026-05-03 22:50 | 26.06765 | -80.14754 | 12 ft | 12 kts | 271° |
| 2026-05-03 22:51 | 26.06767 | -80.14852 | 12 ft | 11 kts | 271° |
| 2026-05-03 22:51 | 26.06767 | -80.14943 | 12 ft | 11 kts | 270° |
| 2026-05-03 22:51 | 26.06767 | -80.15030 | 12 ft | 10 kts | 269° |
| 2026-05-03 22:51 | 26.06766 | -80.15060 | 12 ft | 0 kts | 269° |
| 2026-05-03 22:52 | 26.06766 | -80.15072 | 12 ft | 4 kts | 270° |
| 2026-05-03 22:52 | 26.06752 | -80.15122 | 12 ft | 8 kts | 219° |
| 2026-05-03 22:52 | 26.06694 | -80.15176 | 12 ft | 14 kts | 259° |
| 2026-05-03 22:53 | 26.06694 | -80.15288 | 12 ft | 13 kts | 271° |
| 2026-05-03 22:53 | 26.06696 | -80.15395 | 12 ft | 12 kts | 271° |
| 2026-05-03 22:53 | 26.06696 | -80.15404 | 12 ft | 0 kts | 270° |
| 2026-05-03 22:55 | 26.06696 | -80.15415 | 12 ft | 2 kts | 270° |
| 2026-05-03 22:56 | 26.06696 | -80.15453 | 12 ft | 6 kts | 270° |
| 2026-05-03 22:56 | 26.06696 | -80.15466 | 12 ft | 0 kts | 270° |
| 2026-05-03 22:57 | 26.06696 | -80.15468 | 12 ft | 0 kts | 270° |
| 2026-05-03 22:57 | 26.06696 | -80.15485 | 12 ft | 3 kts | 270° |
| 2026-05-03 22:57 | 26.06696 | -80.15514 | 12 ft | 0 kts | 270° |
| 2026-05-03 22:58 | 26.06696 | -80.15515 | 12 ft | 0 kts | 270° |
| 2026-05-03 22:58 | 26.06696 | -80.15516 | 12 ft | 0 kts | 270° |
| 2026-05-03 22:59 | 26.06697 | -80.15530 | 12 ft | 4 kts | 270° |
| 2026-05-03 22:59 | 26.06697 | -80.15579 | 12 ft | 7 kts | 271° |
| 2026-05-03 22:59 | 26.06697 | -80.15601 | 12 ft | 0 kts | 271° |
| 2026-05-03 23:01 | 26.06697 | -80.15602 | 12 ft | 0 kts | 271° |
| 2026-05-03 23:01 | 26.06698 | -80.15611 | 12 ft | 2 kts | 271° |
| 2026-05-03 23:02 | 26.06698 | -80.15640 | 12 ft | 1 kts | 271° |
| 2026-05-03 23:02 | 26.06698 | -80.15641 | 12 ft | 0 kts | 271° |
| 2026-05-03 23:03 | 26.06698 | -80.15649 | 12 ft | 1 kts | 271° |
| 2026-05-03 23:03 | 26.06699 | -80.15665 | 12 ft | 3 kts | 271° |
| 2026-05-03 23:03 | 26.06699 | -80.15691 | 12 ft | 6 kts | 271° |
| 2026-05-03 23:04 | 26.06699 | -80.15716 | 12 ft | 0 kts | 270° |
| 2026-05-03 23:06 | 26.06699 | -80.15718 | 12 ft | 0 kts | 270° |
| 2026-05-03 23:06 | 26.06699 | -80.15730 | 12 ft | 2 kts | 270° |
| 2026-05-03 23:06 | 26.06700 | -80.15766 | 12 ft | 0 kts | 270° |
| 2026-05-03 23:06 | 26.06700 | -80.15769 | 12 ft | 0 kts | 270° |
| 2026-05-03 23:10 | 26.06700 | -80.15771 | 12 ft | 0 kts | 270° |
| 2026-05-03 23:11 | 26.06700 | -80.15779 | 12 ft | 1 kts | 270° |
| 2026-05-03 23:11 | 26.06699 | -80.15794 | 12 ft | 2 kts | 254° |
| 2026-05-03 23:11 | 26.06687 | -80.15810 | 12 ft | 2 kts | 207° |
| 2026-05-03 23:13 | 26.06680 | -80.15813 | 12 ft | 2 kts | 206° |
| 2026-05-03 23:13 | 26.06650 | -80.15820 | 12 ft | 6 kts | 185° |
| 2026-05-03 23:13 | 26.06595 | -80.15813 | 12 ft | 7 kts | 136° |
| 2026-05-03 23:13 | 26.06592 | -80.15778 | 12 ft | 6 kts | 91° |
| 2026-05-03 23:14 | 26.06591 | -80.15625 | 12 ft | 47 kts | 89° |
| 2026-05-03 23:14 | 26.06583 | -80.14967 | 12 ft | 117 kts | 91° |
| 2026-05-03 23:14 | 26.06570 | -80.13820 | 15 ft | 173 kts | 91° |
| 2026-05-03 23:14 | 26.06513 | -80.12412 | 577 ft | 178 kts | 89° |
| 2026-05-03 23:15 | 26.06601 | -80.11020 | 1239 ft | 179 kts | 71° |
| 2026-05-03 23:15 | 26.07165 | -80.09812 | 1909 ft | 172 kts | 54° |
| 2026-05-03 23:15 | 26.07879 | -80.08695 | 2235 ft | 180 kts | 53° |
| 2026-05-03 23:15 | 26.08685 | -80.07529 | 2491 ft | 192 kts | 42° |
| 2026-05-03 23:16 | 26.09870 | -80.06734 | 2756 ft | 204 kts | 20° |
| 2026-05-03 23:16 | 26.11300 | -80.06162 | 3007 ft | 223 kts | 18° |
| 2026-05-03 23:16 | 26.12856 | -80.05576 | 3350 ft | 240 kts | 18° |
| 2026-05-03 23:16 | 26.14474 | -80.04975 | 3824 ft | 247 kts | 13° |
| 2026-05-03 23:17 | 26.16268 | -80.04900 | 3999 ft | 261 kts | 348° |
| 2026-05-03 23:17 | 26.18063 | -80.05510 | 4008 ft | 262 kts | 340° |
| 2026-05-03 23:17 | 26.19798 | -80.06213 | 4011 ft | 262 kts | 340° |
| 2026-05-03 23:17 | 26.21498 | -80.07005 | 4003 ft | 262 kts | 328° |
| 2026-05-03 23:18 | 26.22815 | -80.08459 | 4009 ft | 264 kts | 301° |
| 2026-05-03 23:18 | 26.23581 | -80.10355 | 4110 ft | 268 kts | 292° |
| 2026-05-03 23:18 | 26.24265 | -80.12355 | 4717 ft | 273 kts | 292° |
| 2026-05-03 23:18 | 26.24946 | -80.14361 | 5664 ft | 271 kts | 290° |
| 2026-05-03 23:19 | 26.25502 | -80.16382 | 6470 ft | 274 kts | 284° |
| 2026-05-03 23:19 | 26.25879 | -80.18495 | 7242 ft | 277 kts | 280° |
| 2026-05-03 23:19 | 26.26187 | -80.20620 | 7997 ft | 280 kts | 279° |
| 2026-05-03 23:19 | 26.26490 | -80.22787 | 8743 ft | 283 kts | 279° |
| 2026-05-03 23:20 | 26.26793 | -80.24944 | 9456 ft | 285 kts | 279° |
| 2026-05-03 23:20 | 26.27107 | -80.27171 | 10162 ft | 288 kts | 279° |
| 2026-05-03 23:20 | 26.27428 | -80.29443 | 10643 ft | 300 kts | 279° |
| 2026-05-03 23:20 | 26.27769 | -80.31844 | 10940 ft | 317 kts | 279° |
| 2026-05-03 23:21 | 26.28125 | -80.34356 | 11230 ft | 333 kts | 279° |
| 2026-05-03 23:21 | 26.28500 | -80.37002 | 11507 ft | 349 kts | 279° |
| 2026-05-03 23:21 | 26.28885 | -80.39726 | 11921 ft | 359 kts | 279° |
| 2026-05-03 23:21 | 26.29278 | -80.42505 | 12553 ft | 362 kts | 279° |
| 2026-05-03 23:22 | 26.30082 | -80.48197 | 13870 ft | 366 kts | 279° |
| 2026-05-03 23:22 | 26.30476 | -80.50998 | 14483 ft | 368 kts | 279° |
| 2026-05-03 23:22 | 26.30878 | -80.53854 | 15093 ft | 370 kts | 279° |
| 2026-05-03 23:23 | 26.31280 | -80.56712 | 15686 ft | 372 kts | 279° |
| 2026-05-03 23:23 | 26.31685 | -80.59602 | 16269 ft | 374 kts | 279° |
| 2026-05-03 23:23 | 26.32093 | -80.62513 | 16840 ft | 376 kts | 279° |
| 2026-05-03 23:23 | 26.32497 | -80.65404 | 17391 ft | 378 kts | 278° |
| 2026-05-03 23:24 | 26.32907 | -80.68349 | 17943 ft | 380 kts | 278° |
| 2026-05-03 23:24 | 26.33315 | -80.71291 | 18478 ft | 382 kts | 278° |
| 2026-05-03 23:24 | 26.33733 | -80.74307 | 19010 ft | 384 kts | 278° |
| 2026-05-03 23:24 | 26.34143 | -80.77272 | 19517 ft | 386 kts | 278° |
| 2026-05-03 23:25 | 26.34563 | -80.80305 | 20020 ft | 388 kts | 278° |
| 2026-05-03 23:25 | 26.34982 | -80.83337 | 20507 ft | 390 kts | 278° |
| 2026-05-03 23:25 | 26.35398 | -80.86346 | 20975 ft | 392 kts | 278° |
| 2026-05-03 23:25 | 26.35888 | -80.89408 | 21428 ft | 394 kts | 284° |
| 2026-05-03 23:26 | 26.36895 | -80.92313 | 21865 ft | 397 kts | 297° |
| 2026-05-03 23:26 | 26.38472 | -80.94901 | 22324 ft | 400 kts | 309° |
| 2026-05-03 23:26 | 26.40461 | -80.97145 | 22795 ft | 402 kts | 314° |
| 2026-05-03 23:26 | 26.42531 | -80.99307 | 23236 ft | 403 kts | 315° |
| 2026-05-03 23:27 | 26.44594 | -81.01445 | 23652 ft | 404 kts | 315° |
| 2026-05-03 23:27 | 26.46693 | -81.03631 | 24070 ft | 405 kts | 315° |
| 2026-05-03 23:27 | 26.48773 | -81.05809 | 24474 ft | 406 kts | 315° |
| 2026-05-03 23:27 | 26.50862 | -81.08003 | 24866 ft | 407 kts | 315° |
| 2026-05-03 23:28 | 26.52937 | -81.10184 | 25243 ft | 407 kts | 315° |
| 2026-05-03 23:28 | 26.55046 | -81.12405 | 25617 ft | 408 kts | 315° |
| 2026-05-03 23:28 | 26.57126 | -81.14598 | 25966 ft | 409 kts | 315° |
| 2026-05-03 23:28 | 26.59257 | -81.16846 | 26296 ft | 411 kts | 315° |
| 2026-05-03 23:29 | 26.61359 | -81.19067 | 26609 ft | 412 kts | 314° |
| 2026-05-03 23:29 | 26.63487 | -81.21315 | 26916 ft | 414 kts | 314° |
| 2026-05-03 23:29 | 26.65598 | -81.23546 | 27211 ft | 416 kts | 314° |
| 2026-05-03 23:29 | 26.67717 | -81.25789 | 27497 ft | 417 kts | 314° |
| 2026-05-03 23:30 | 26.69877 | -81.28078 | 27779 ft | 419 kts | 314° |
| 2026-05-03 23:30 | 26.72024 | -81.30360 | 28050 ft | 420 kts | 314° |
| 2026-05-03 23:30 | 26.74170 | -81.32641 | 28315 ft | 422 kts | 314° |
| 2026-05-03 23:30 | 26.76327 | -81.34936 | 28621 ft | 422 kts | 314° |
| 2026-05-03 23:31 | 26.78473 | -81.37220 | 28969 ft | 421 kts | 313° |
| 2026-05-03 23:31 | 26.80595 | -81.39481 | 29322 ft | 420 kts | 313° |
| 2026-05-03 23:31 | 26.82758 | -81.41787 | 29670 ft | 419 kts | 313° |
| 2026-05-03 23:31 | 26.84883 | -81.44055 | 29999 ft | 418 kts | 313° |
| 2026-05-03 23:32 | 26.86999 | -81.46314 | 30318 ft | 417 kts | 313° |
| 2026-05-03 23:32 | 26.89108 | -81.48568 | 30630 ft | 416 kts | 312° |
| 2026-05-03 23:32 | 26.91247 | -81.50850 | 30938 ft | 415 kts | 312° |
| 2026-05-03 23:32 | 26.93332 | -81.53078 | 31231 ft | 415 kts | 311° |
| 2026-05-03 23:33 | 26.95447 | -81.55339 | 31517 ft | 414 kts | 311° |
| 2026-05-03 23:33 | 26.97561 | -81.57603 | 31794 ft | 414 kts | 310° |
| 2026-05-03 23:33 | 26.99662 | -81.59855 | 32062 ft | 413 kts | 310° |
| 2026-05-03 23:33 | 27.01751 | -81.62096 | 32322 ft | 413 kts | 309° |
| 2026-05-03 23:34 | 27.03867 | -81.64368 | 32581 ft | 413 kts | 309° |
| 2026-05-03 23:34 | 27.05938 | -81.66599 | 32855 ft | 412 kts | 308° |
| 2026-05-03 23:34 | 27.08041 | -81.68876 | 33167 ft | 411 kts | 308° |
| 2026-05-03 23:34 | 27.10109 | -81.71110 | 33462 ft | 410 kts | 308° |
| 2026-05-03 23:35 | 27.12180 | -81.73333 | 33724 ft | 410 kts | 308° |
| 2026-05-03 23:35 | 27.14265 | -81.75566 | 33990 ft | 409 kts | 308° |
| 2026-05-03 23:35 | 27.16330 | -81.77782 | 34252 ft | 408 kts | 308° |
| 2026-05-03 23:35 | 27.18404 | -81.80015 | 34478 ft | 408 kts | 308° |
| 2026-05-03 23:36 | 27.20474 | -81.82247 | 34664 ft | 409 kts | 308° |
| 2026-05-03 23:36 | 27.22547 | -81.84551 | 34844 ft | 407 kts | 305° |
| 2026-05-03 23:36 | 27.24406 | -81.86979 | 35024 ft | 402 kts | 300° |
| 2026-05-03 23:36 | 27.26043 | -81.89539 | 35201 ft | 398 kts | 296° |
| 2026-05-03 23:37 | 27.27471 | -81.92242 | 35360 ft | 395 kts | 291° |
| 2026-05-03 23:37 | 27.28674 | -81.95049 | 35504 ft | 392 kts | 287° |
| 2026-05-03 23:37 | 27.29654 | -81.97945 | 35652 ft | 390 kts | 283° |
| 2026-05-03 23:37 | 27.30411 | -82.00918 | 35799 ft | 387 kts | 278° |
| 2026-05-03 23:38 | 27.31004 | -82.03903 | 35939 ft | 387 kts | 278° |
| 2026-05-03 23:38 | 27.31578 | -82.06918 | 36058 ft | 388 kts | 277° |
| 2026-05-03 23:38 | 27.32711 | -82.12951 | 36065 ft | 388 kts | 277° |
| 2026-05-03 23:39 | 27.33835 | -82.18971 | 36067 ft | 388 kts | 277° |
| 2026-05-03 23:39 | 27.34947 | -82.24948 | 36064 ft | 388 kts | 277° |
| 2026-05-03 23:40 | 27.36062 | -82.30960 | 36060 ft | 388 kts | 277° |
| 2026-05-03 23:40 | 27.37169 | -82.36948 | 36056 ft | 388 kts | 277° |
| 2026-05-03 23:41 | 27.38281 | -82.42986 | 36054 ft | 388 kts | 277° |
| 2026-05-03 23:41 | 27.39398 | -82.49081 | 36053 ft | 388 kts | 277° |
| 2026-05-03 23:42 | 27.40498 | -82.55079 | 36052 ft | 388 kts | 277° |
| 2026-05-03 23:42 | 27.41630 | -82.61138 | 36052 ft | 389 kts | 278° |
| 2026-05-03 23:43 | 27.42777 | -82.67239 | 36054 ft | 388 kts | 277° |
| 2026-05-03 23:43 | 27.43907 | -82.73305 | 36053 ft | 388 kts | 277° |
| 2026-05-03 23:44 | 27.45030 | -82.79347 | 36052 ft | 388 kts | 277° |
| 2026-05-03 23:44 | 27.46154 | -82.85416 | 36052 ft | 388 kts | 277° |
| 2026-05-03 23:45 | 27.47271 | -82.91468 | 36050 ft | 387 kts | 278° |
| 2026-05-03 23:45 | 27.48384 | -82.97508 | 36047 ft | 386 kts | 278° |
| 2026-05-03 23:46 | 27.49489 | -83.03524 | 36044 ft | 385 kts | 278° |
| 2026-05-03 23:46 | 27.50597 | -83.09567 | 36040 ft | 384 kts | 278° |
| 2026-05-03 23:47 | 27.51697 | -83.15591 | 36041 ft | 384 kts | 278° |
| 2026-05-03 23:47 | 27.52793 | -83.21592 | 36044 ft | 384 kts | 278° |
| 2026-05-03 23:48 | 27.53900 | -83.27625 | 36049 ft | 384 kts | 278° |
| 2026-05-03 23:48 | 27.55005 | -83.33678 | 36054 ft | 384 kts | 278° |
| 2026-05-03 23:49 | 27.56102 | -83.39718 | 36057 ft | 384 kts | 278° |
| 2026-05-03 23:49 | 27.57198 | -83.45776 | 36059 ft | 384 kts | 278° |
| 2026-05-03 23:50 | 27.58112 | -83.50845 | 36059 ft | 384 kts | 278° |
| 2026-05-03 23:50 | 27.59382 | -83.57912 | 36059 ft | 384 kts | 278° |
| 2026-05-03 23:51 | 27.60462 | -83.63935 | 36059 ft | 384 kts | 278° |
| 2026-05-03 23:51 | 27.61547 | -83.70016 | 36060 ft | 384 kts | 278° |
| 2026-05-03 23:52 | 27.62626 | -83.76077 | 36060 ft | 384 kts | 278° |
| 2026-05-03 23:52 | 27.63696 | -83.82100 | 36059 ft | 384 kts | 278° |
| 2026-05-03 23:53 | 27.64772 | -83.88168 | 36059 ft | 384 kts | 278° |
| 2026-05-03 23:53 | 27.65849 | -83.94255 | 36059 ft | 384 kts | 278° |
| 2026-05-03 23:54 | 27.66903 | -84.00231 | 36059 ft | 384 kts | 278° |
| 2026-05-03 23:54 | 27.67963 | -84.06256 | 36059 ft | 384 kts | 278° |
| 2026-05-03 23:55 | 27.69025 | -84.12305 | 36059 ft | 384 kts | 278° |
| 2026-05-03 23:55 | 27.70077 | -84.18317 | 36059 ft | 384 kts | 278° |
| 2026-05-03 23:56 | 27.71125 | -84.24322 | 36059 ft | 384 kts | 278° |
| 2026-05-03 23:56 | 27.72172 | -84.30337 | 36059 ft | 384 kts | 278° |
| 2026-05-03 23:57 | 27.73221 | -84.36378 | 36059 ft | 384 kts | 278° |
| 2026-05-03 23:57 | 27.74269 | -84.42429 | 36059 ft | 384 kts | 278° |
| 2026-05-03 23:58 | 27.75306 | -84.48436 | 36059 ft | 384 kts | 278° |
| 2026-05-03 23:58 | 27.76348 | -84.54486 | 36061 ft | 384 kts | 278° |
| 2026-05-03 23:59 | 27.77380 | -84.60496 | 36064 ft | 384 kts | 278° |
| 2026-05-03 23:59 | 27.78410 | -84.66518 | 36073 ft | 384 kts | 277° |
| 2026-05-04 00:00 | 27.79439 | -84.72566 | 36077 ft | 383 kts | 277° |
| 2026-05-04 00:00 | 27.80460 | -84.78571 | 36084 ft | 383 kts | 277° |
| 2026-05-04 00:01 | 27.81487 | -84.84615 | 36089 ft | 383 kts | 277° |
| 2026-05-04 00:01 | 27.82516 | -84.90661 | 36093 ft | 383 kts | 277° |
| 2026-05-04 00:02 | 27.83533 | -84.96668 | 36096 ft | 383 kts | 277° |
| 2026-05-04 00:02 | 27.84552 | -85.02721 | 36096 ft | 383 kts | 278° |
| 2026-05-04 00:03 | 27.85560 | -85.08726 | 36096 ft | 384 kts | 278° |
| 2026-05-04 00:03 | 27.86583 | -85.14822 | 36096 ft | 384 kts | 279° |
| 2026-05-04 00:04 | 27.87602 | -85.20911 | 36096 ft | 385 kts | 279° |
| 2026-05-04 00:04 | 27.88867 | -85.26923 | 36096 ft | 387 kts | 284° |
| 2026-05-04 00:05 | 27.90579 | -85.32855 | 36096 ft | 388 kts | 286° |
| 2026-05-04 00:05 | 27.92354 | -85.38731 | 36096 ft | 388 kts | 286° |
| 2026-05-04 00:06 | 27.94142 | -85.44653 | 36096 ft | 388 kts | 286° |
| 2026-05-04 00:06 | 27.95930 | -85.50574 | 36096 ft | 388 kts | 286° |
| 2026-05-04 00:07 | 27.97702 | -85.56456 | 36096 ft | 388 kts | 286° |
| 2026-05-04 00:07 | 27.99482 | -85.62374 | 36096 ft | 388 kts | 286° |
| 2026-05-04 00:08 | 28.01266 | -85.68325 | 36098 ft | 387 kts | 286° |
| 2026-05-04 00:08 | 28.03033 | -85.74239 | 36097 ft | 387 kts | 286° |
| 2026-05-04 00:09 | 28.04786 | -85.80106 | 36097 ft | 387 kts | 286° |
| 2026-05-04 00:09 | 28.06539 | -85.85979 | 36097 ft | 387 kts | 286° |
| 2026-05-04 00:10 | 28.08290 | -85.91851 | 36097 ft | 387 kts | 286° |
| 2026-05-04 00:10 | 28.10047 | -85.97753 | 36096 ft | 387 kts | 286° |
| 2026-05-04 00:11 | 28.11813 | -86.03614 | 36096 ft | 387 kts | 286° |
| 2026-05-04 00:11 | 28.13571 | -86.09483 | 36096 ft | 387 kts | 286° |
| 2026-05-04 00:12 | 28.15330 | -86.15398 | 36096 ft | 387 kts | 286° |
| 2026-05-04 00:12 | 28.17069 | -86.21274 | 36096 ft | 387 kts | 286° |
| 2026-05-04 00:13 | 28.18803 | -86.27147 | 36096 ft | 387 kts | 286° |
| 2026-05-04 00:13 | 28.20534 | -86.33027 | 36095 ft | 387 kts | 286° |